SAMR/AFA METAR and TAF weather

Enter ICAO airport designator
Station Type Date Time Source
SAMR METAR 2024/01/08 06:39 UTC NOAA

SAMR 080639Z 16008KT 9999 TS SCT045CB 21/16 Q1010 RMK CB OBS TO N


Station Type Date Time Source
SAMR Decoded METAR 2024/01/08 06:39 UTC NOAA

San Rafael Aerodrome, Argentina (SAMR) 34-35S 068-24W 748M
Jan 08, 2024 - 01:39 AM EST / 2024.01.08 0639 UTC
Wind: from the SSE (160 degrees) at 9 MPH (8 KT):0
Visibility: greater than 7 mile(s):0
Sky conditions: partly cloudy
Weather: thunder; Cumulonimbus clouds observed
Temperature: 69 F (21 C)
Dew Point: 60 F (16 C)
Relative Humidity: 73%
Pressure (altimeter): 29.83 in. Hg (1010 hPa)
ob: SAMR 080639Z 16008KT 9999 TS SCT045CB 21/16 Q1010 RMK CB OBS TO N
cycle: 6

Station Type Date Time Source
SAMR TAF 2023/12/05 18:21 UTC NOAA